createdAt,value
2019-04-30T00:00:07.187Z,18.47
2019-04-30T00:05:57.501Z,16.23
2019-04-30T00:08:46.244Z,17.63
2019-04-30T00:11:36.252Z,17.60
2019-04-30T00:14:32.193Z,17.17
2019-04-30T00:17:19.526Z,15.03
2019-04-30T00:20:05.666Z,15.00
2019-04-30T00:22:55.285Z,13.30
2019-04-30T00:25:43.561Z,12.40
2019-04-30T00:28:31.943Z,14.60
2019-04-30T00:31:12.490Z,15.70
2019-04-30T00:33:57.872Z,15.33
2019-04-30T00:36:37.514Z,15.47
2019-04-30T00:39:18.565Z,14.07
2019-04-30T00:42:00.045Z,18.57
2019-04-30T00:44:40.750Z,18.63
2019-04-30T00:47:21.570Z,15.03
2019-04-30T00:50:02.873Z,24.20
2019-04-30T00:52:43.689Z,27.93
2019-04-30T00:55:24.954Z,31.53
2019-04-30T00:57:55.778Z,29.20
2019-04-30T01:06:59.890Z,28.03
2019-04-30T01:09:49.576Z,28.47
2019-04-30T01:12:41.102Z,29.67
2019-04-30T01:15:25.727Z,26.90
2019-04-30T01:18:14.465Z,25.27
2019-04-30T01:21:06.915Z,22.27
2019-04-30T01:23:54.770Z,22.57
2019-04-30T01:26:44.353Z,22.67
2019-04-30T01:29:40.863Z,19.73
2019-04-30T01:32:17.590Z,20.83
2019-04-30T01:34:58.961Z,17.87
2019-04-30T01:37:39.495Z,21.80
2019-04-30T01:40:20.728Z,20.20
2019-04-30T01:43:02.329Z,20.03
2019-04-30T01:45:43.601Z,24.20
2019-04-30T01:48:25.004Z,22.00
2019-04-30T01:51:06.336Z,23.97
2019-04-30T01:53:35.989Z,26.77
2019-04-30T01:56:43.305Z,25.20
2019-04-30T01:59:50.707Z,25.67
2019-04-30T02:08:23.749Z,17.63
2019-04-30T02:11:12.137Z,19.63
2019-04-30T02:14:00.493Z,18.97
2019-04-30T02:16:49.499Z,17.40
2019-04-30T02:19:39.206Z,17.83
2019-04-30T02:22:30.910Z,15.03
2019-04-30T02:25:19.514Z,15.77
2019-04-30T02:28:08.967Z,15.67
2019-04-30T02:30:50.950Z,17.20
2019-04-30T02:33:33.722Z,16.20
2019-04-30T02:36:33.638Z,17.50
2019-04-30T02:39:14.366Z,15.67
2019-04-30T02:42:23.182Z,21.10
2019-04-30T02:45:11.682Z,17.00
2019-04-30T02:48:00.289Z,21.43
2019-04-30T02:50:49.481Z,21.97
2019-04-30T02:53:56.910Z,19.70
2019-04-30T03:00:00.987Z,16.57
2019-04-30T03:02:50.581Z,16.00
2019-04-30T03:05:41.931Z,16.40
2019-04-30T03:08:30.445Z,16.60
2019-04-30T03:11:20.534Z,15.43
2019-04-30T03:14:10.321Z,15.13
2019-04-30T03:17:20.687Z,15.63
2019-04-30T03:23:16.143Z,14.37
2019-04-30T03:26:04.753Z,14.83
2019-04-30T03:28:53.143Z,15.63
2019-04-30T03:31:33.655Z,16.73
2019-04-30T03:34:19.590Z,16.20
2019-04-30T03:36:56.741Z,14.67
2019-04-30T03:39:39.974Z,15.73
2019-04-30T03:42:20.088Z,14.43
2019-04-30T03:45:01.930Z,15.10
2019-04-30T03:47:43.365Z,16.50
2019-04-30T03:50:24.263Z,16.20
2019-04-30T03:53:04.898Z,18.20
2019-04-30T03:55:46.335Z,15.73
2019-04-30T03:58:29.188Z,16.50
2019-04-30T04:04:39.706Z,15.63
2019-04-30T04:07:40.459Z,15.30
2019-04-30T04:13:22.602Z,15.47
2019-04-30T04:16:03.161Z,17.30
2019-04-30T04:18:44.058Z,14.93
2019-04-30T04:21:25.216Z,19.73
2019-04-30T04:24:06.047Z,16.00
2019-04-30T04:26:46.644Z,20.53
2019-04-30T04:29:29.796Z,17.80
2019-04-30T04:32:10.842Z,19.00
2019-04-30T04:34:51.891Z,19.10
2019-04-30T04:37:33.281Z,18.73
2019-04-30T04:40:14.203Z,19.07
2019-04-30T04:42:54.992Z,16.33
2019-04-30T04:45:24.370Z,21.57
2019-04-30T04:48:12.741Z,19.10
2019-04-30T04:51:01.111Z,19.80
2019-04-30T04:53:50.133Z,20.53
2019-04-30T04:56:21.021Z,22.37
2019-04-30T04:59:10.280Z,20.40
2019-04-30T05:07:50.646Z,22.97
2019-04-30T05:10:39.378Z,19.30
2019-04-30T05:13:29.092Z,21.20
2019-04-30T05:16:19.078Z,22.43
2019-04-30T05:19:08.893Z,21.67
2019-04-30T05:21:59.698Z,22.70
2019-04-30T05:24:48.905Z,22.20
2019-04-30T05:27:30.854Z,21.50
2019-04-30T05:30:12.168Z,23.40
2019-04-30T05:32:53.376Z,23.20
2019-04-30T05:35:34.769Z,24.50
2019-04-30T05:38:04.448Z,22.40
2019-04-30T05:40:52.808Z,22.80
2019-04-30T05:43:41.207Z,23.30
2019-04-30T05:46:29.966Z,27.40
2019-04-30T05:49:20.455Z,21.63
2019-04-30T05:55:04.494Z,24.67
2019-04-30T05:57:56.239Z,24.07
2019-04-30T06:00:42.983Z,25.43
2019-04-30T06:03:33.301Z,23.80
2019-04-30T06:06:21.427Z,22.87
2019-04-30T06:12:28.562Z,23.20
2019-04-30T06:15:35.961Z,21.73
2019-04-30T06:18:24.485Z,21.80
2019-04-30T06:21:13.026Z,24.73
2019-04-30T06:24:01.415Z,25.30
2019-04-30T06:26:42.405Z,27.50
2019-04-30T06:29:23.015Z,25.93
2019-04-30T06:32:03.933Z,23.83
2019-04-30T06:34:45.001Z,25.53
2019-04-30T06:37:26.515Z,26.03
2019-04-30T06:40:09.362Z,22.27
2019-04-30T06:42:50.164Z,26.30
2019-04-30T06:45:30.701Z,23.00
2019-04-30T06:48:11.292Z,23.60
2019-04-30T06:50:52.337Z,23.23
2019-04-30T06:53:33.171Z,22.20
2019-04-30T06:56:14.289Z,22.87
2019-04-30T06:58:54.922Z,22.07
2019-04-30T07:01:35.972Z,21.03
2019-04-30T07:04:19.356Z,24.07
2019-04-30T07:07:00.009Z,21.03
2019-04-30T07:12:49.169Z,23.10
2019-04-30T07:15:30.678Z,25.70
2019-04-30T07:18:11.909Z,23.80
2019-04-30T07:20:52.878Z,21.67
2019-04-30T07:23:34.016Z,21.00
2019-04-30T07:26:22.718Z,21.03
2019-04-30T07:28:56.995Z,20.07
2019-04-30T07:31:39.289Z,22.00
2019-04-30T07:34:20.709Z,21.07
2019-04-30T07:37:11.853Z,18.10
2019-04-30T07:39:44.564Z,20.07
2019-04-30T07:42:25.861Z,17.30
2019-04-30T07:45:06.553Z,18.83
2019-04-30T07:47:49.474Z,21.20
2019-04-30T07:50:31.955Z,21.03
2019-04-30T07:53:13.761Z,19.63
2019-04-30T07:55:55.170Z,20.97
2019-04-30T07:58:38.579Z,17.73
2019-04-30T08:01:10.321Z,18.30
2019-04-30T08:09:58.859Z,15.63
2019-04-30T08:12:49.981Z,17.63
2019-04-30T08:15:37.127Z,16.90
2019-04-30T08:18:25.529Z,17.80
2019-04-30T08:21:13.916Z,16.90
2019-04-30T08:23:55.033Z,14.93
2019-04-30T08:26:36.169Z,16.87
2019-04-30T08:29:17.188Z,15.13
2019-04-30T08:31:59.318Z,15.13
2019-04-30T08:34:40.507Z,14.77
2019-04-30T08:37:22.204Z,14.50
2019-04-30T08:40:03.546Z,16.73
2019-04-30T08:42:44.926Z,14.07
2019-04-30T08:45:26.057Z,14.10
2019-04-30T08:48:09.111Z,16.90
2019-04-30T08:50:50.610Z,14.63
2019-04-30T08:53:33.757Z,15.77
2019-04-30T08:56:14.007Z,17.30
2019-04-30T08:58:55.006Z,19.77
2019-04-30T09:01:36.343Z,20.40
2019-04-30T09:04:16.910Z,17.77
2019-04-30T09:06:59.970Z,21.40
2019-04-30T09:09:44.490Z,21.00
2019-04-30T09:12:23.876Z,20.13
2019-04-30T09:15:04.758Z,18.40
2019-04-30T09:17:58.960Z,23.57
2019-04-30T09:20:29.185Z,21.10
2019-04-30T09:23:11.295Z,25.67
2019-04-30T09:25:52.481Z,25.83
2019-04-30T09:28:33.754Z,25.57
2019-04-30T09:31:14.693Z,24.17
2019-04-30T09:33:57.978Z,26.37
2019-04-30T09:36:39.307Z,20.60
2019-04-30T09:39:22.921Z,28.10
2019-04-30T09:51:14.091Z,27.70
2019-04-30T09:53:59.650Z,30.90
2019-04-30T09:56:39.324Z,27.00
2019-04-30T09:59:20.050Z,29.20
2019-04-30T10:02:01.158Z,27.63
2019-04-30T10:04:42.680Z,29.40
2019-04-30T10:07:12.286Z,24.43
2019-04-30T10:10:00.687Z,27.10
2019-04-30T10:12:49.347Z,26.17
2019-04-30T10:18:40.234Z,29.67
2019-04-30T10:21:29.071Z,27.83
2019-04-30T10:24:19.643Z,28.47
2019-04-30T10:27:12.922Z,29.70
2019-04-30T10:29:59.435Z,23.27
2019-04-30T10:32:50.055Z,23.90
2019-04-30T10:35:39.542Z,24.83
2019-04-30T10:38:29.335Z,23.03
2019-04-30T10:41:18.802Z,23.90
2019-04-30T10:44:08.880Z,24.97
2019-04-30T10:46:59.355Z,25.87
2019-04-30T10:49:48.731Z,26.23
2019-04-30T10:52:39.549Z,26.20
2019-04-30T10:55:09.491Z,25.30
2019-04-30T10:57:59.419Z,23.27
2019-04-30T11:00:49.715Z,22.53
2019-04-30T11:03:39.140Z,25.60
2019-04-30T11:06:28.241Z,27.00
2019-04-30T11:09:16.628Z,24.10
2019-04-30T11:15:14.598Z,25.37
2019-04-30T11:18:03.208Z,24.17
2019-04-30T11:20:53.235Z,27.83
2019-04-30T11:23:34.135Z,26.90
2019-04-30T11:26:15.761Z,28.60
2019-04-30T11:28:57.007Z,24.70
2019-04-30T11:31:57.035Z,28.93
2019-04-30T11:34:37.963Z,26.87
2019-04-30T11:37:19.428Z,26.10
2019-04-30T11:40:00.483Z,25.47
2019-04-30T11:42:41.834Z,27.97
2019-04-30T11:45:22.923Z,29.40
2019-04-30T11:48:03.834Z,29.83
2019-04-30T11:50:45.096Z,24.93
2019-04-30T11:53:30.158Z,30.67
2019-04-30T11:56:09.014Z,27.20
2019-04-30T11:58:50.163Z,24.77
2019-04-30T12:01:32.062Z,26.90
2019-04-30T12:04:13.831Z,24.20
2019-04-30T12:06:56.382Z,24.23
2019-04-30T12:12:42.554Z,25.33
2019-04-30T12:15:23.592Z,22.93
2019-04-30T12:18:05.027Z,25.00
2019-04-30T12:20:34.378Z,24.47
2019-04-30T12:23:22.753Z,23.10
2019-04-30T12:26:11.156Z,23.87
2019-04-30T12:28:59.878Z,24.47
2019-04-30T12:31:48.498Z,24.03
2019-04-30T12:34:36.947Z,26.20
2019-04-30T12:37:25.322Z,27.13
2019-04-30T12:40:34.161Z,25.40
2019-04-30T12:43:22.530Z,26.60
2019-04-30T12:46:11.229Z,27.33
2019-04-30T12:49:19.056Z,25.23
2019-04-30T12:52:15.591Z,23.27
2019-04-30T12:55:15.774Z,25.90
2019-04-30T12:58:04.946Z,28.53
2019-04-30T13:01:12.567Z,28.60
2019-04-30T13:04:01.565Z,25.47
2019-04-30T13:06:51.742Z,23.70
2019-04-30T13:09:41.688Z,24.47
2019-04-30T13:12:14.574Z,23.03
2019-04-30T13:15:04.268Z,23.00
2019-04-30T13:17:52.919Z,24.00
2019-04-30T13:20:41.352Z,19.40
2019-04-30T13:23:22.443Z,24.30
2019-04-30T13:26:03.912Z,25.30
2019-04-30T13:31:41.379Z,21.90
2019-04-30T13:34:41.485Z,22.40
2019-04-30T13:37:22.724Z,20.60
2019-04-30T13:43:11.474Z,23.87
2019-04-30T13:45:52.425Z,21.53
2019-04-30T13:48:33.065Z,21.90
2019-04-30T13:51:13.969Z,23.60
2019-04-30T13:53:55.173Z,20.37
2019-04-30T13:56:36.060Z,19.50
2019-04-30T13:59:18.430Z,20.57
2019-04-30T14:01:59.095Z,19.33
2019-04-30T14:04:59.270Z,23.80
2019-04-30T14:07:59.887Z,20.43
2019-04-30T14:10:43.929Z,23.23
2019-04-30T14:13:25.698Z,20.00
2019-04-30T14:16:07.407Z,19.23
2019-04-30T14:18:50.863Z,20.10
2019-04-30T14:21:35.263Z,20.57
2019-04-30T14:24:14.138Z,17.80
2019-04-30T14:26:59.253Z,18.90
2019-04-30T14:29:40.374Z,19.17
2019-04-30T14:32:21.246Z,19.77
2019-04-30T14:35:02.330Z,20.63
2019-04-30T14:37:43.147Z,20.17
2019-04-30T14:40:25.133Z,20.40
2019-04-30T14:43:11.453Z,25.00
2019-04-30T14:46:12.403Z,28.13
2019-04-30T14:48:56.825Z,19.97
2019-04-30T14:51:27.105Z,25.40
2019-04-30T15:00:41.873Z,17.90
2019-04-30T15:06:25.669Z,19.00
2019-04-30T15:12:09.689Z,23.40
2019-04-30T15:14:59.315Z,21.47
2019-04-30T15:17:29.882Z,20.83
2019-04-30T15:20:19.670Z,19.70
2019-04-30T15:26:25.212Z,20.03
2019-04-30T15:29:16.143Z,20.90
2019-04-30T15:32:03.780Z,21.23
2019-04-30T15:34:52.199Z,18.57
2019-04-30T15:41:11.519Z,20.93
2019-04-30T15:44:00.400Z,17.70
2019-04-30T15:49:44.010Z,19.27
2019-04-30T15:52:32.439Z,19.07
2019-04-30T15:55:20.816Z,16.57
2019-04-30T15:58:28.995Z,19.97
2019-04-30T16:01:19.225Z,22.40
2019-04-30T16:07:17.228Z,18.43
2019-04-30T16:16:06.887Z,17.87
2019-04-30T16:18:55.342Z,18.63
2019-04-30T16:21:24.811Z,16.50
2019-04-30T16:24:13.311Z,19.70
2019-04-30T16:27:01.710Z,20.20
2019-04-30T16:29:50.095Z,18.53
2019-04-30T16:32:38.503Z,19.03
2019-04-30T16:35:26.947Z,18.70
2019-04-30T16:38:15.359Z,18.37
2019-04-30T16:41:03.712Z,17.17
2019-04-30T16:43:52.126Z,18.43
2019-04-30T16:46:40.562Z,19.30
2019-04-30T16:49:29.089Z,18.63
2019-04-30T16:52:19.014Z,18.53
2019-04-30T16:55:07.975Z,19.30
2019-04-30T16:57:58.506Z,17.30
2019-04-30T17:00:49.109Z,16.77
2019-04-30T17:09:50.959Z,19.23
2019-04-30T17:15:42.507Z,20.53
2019-04-30T17:18:23.200Z,17.50
2019-04-30T17:21:04.600Z,16.30
2019-04-30T17:26:43.869Z,18.37
2019-04-30T17:29:24.457Z,17.77
2019-04-30T17:32:06.020Z,16.77
2019-04-30T17:34:49.133Z,21.10
2019-04-30T17:37:31.590Z,20.77
2019-04-30T17:40:12.542Z,21.27
2019-04-30T17:42:56.858Z,24.57
2019-04-30T17:45:39.188Z,26.63
2019-04-30T17:48:20.174Z,26.47
2019-04-30T17:51:01.248Z,29.57
2019-04-30T17:54:01.502Z,24.83
2019-04-30T17:56:42.826Z,25.23
2019-04-30T17:59:23.674Z,24.37
2019-04-30T18:02:06.661Z,26.57
2019-04-30T18:04:47.386Z,26.00
2019-04-30T18:07:29.613Z,23.03
2019-04-30T18:10:11.843Z,24.67
2019-04-30T18:12:52.823Z,24.10
2019-04-30T18:15:33.889Z,25.07
2019-04-30T18:18:20.002Z,28.20
2019-04-30T18:24:21.715Z,25.40
2019-04-30T18:30:15.745Z,24.50
2019-04-30T18:32:58.402Z,21.90
2019-04-30T18:35:39.725Z,27.03
2019-04-30T18:38:21.334Z,22.67
2019-04-30T18:41:02.051Z,26.40
2019-04-30T18:43:42.801Z,24.30
2019-04-30T18:46:24.018Z,24.00
2019-04-30T18:49:05.732Z,23.90
2019-04-30T18:51:49.247Z,24.10
2019-04-30T18:54:30.355Z,25.87
2019-04-30T18:57:12.028Z,25.00
2019-04-30T18:59:53.343Z,24.40
2019-04-30T19:02:34.251Z,24.97
2019-04-30T19:14:35.567Z,22.73
2019-04-30T19:17:35.839Z,24.70
2019-04-30T19:20:23.117Z,24.70
2019-04-30T19:23:04.215Z,21.57
2019-04-30T19:28:34.271Z,25.43
2019-04-30T19:31:14.968Z,23.23
2019-04-30T19:33:56.314Z,21.60
2019-04-30T19:36:37.821Z,23.10
2019-04-30T19:39:20.836Z,23.03
2019-04-30T19:42:02.032Z,22.70
2019-04-30T19:44:55.904Z,21.90
2019-04-30T19:47:26.071Z,21.73
2019-04-30T19:49:55.510Z,23.73
2019-04-30T19:52:44.511Z,22.23
2019-04-30T19:58:52.533Z,22.80
2019-04-30T20:01:32.458Z,24.53
2019-04-30T20:04:32.789Z,21.63
2019-04-30T20:07:11.389Z,22.37
2019-04-30T20:10:03.909Z,26.63
2019-04-30T20:12:42.950Z,27.10
2019-04-30T20:15:24.680Z,27.40
2019-04-30T20:18:06.177Z,24.53
2019-04-30T20:20:51.784Z,24.43
2019-04-30T20:23:34.819Z,25.30
2019-04-30T20:26:15.993Z,21.80
2019-04-30T20:28:58.621Z,23.97
2019-04-30T20:31:39.538Z,24.77
2019-04-30T20:34:20.599Z,22.73
2019-04-30T20:37:01.549Z,22.00
2019-04-30T20:42:24.671Z,24.83
2019-04-30T20:45:05.380Z,23.83
2019-04-30T20:47:46.922Z,23.70
2019-04-30T20:50:28.052Z,26.17
2019-04-30T20:53:09.437Z,21.23
2019-04-30T20:55:51.070Z,24.57
2019-04-30T20:58:32.259Z,22.73
2019-04-30T21:01:13.480Z,23.37
2019-04-30T21:03:54.213Z,23.17
2019-04-30T21:06:35.086Z,23.03
2019-04-30T21:09:16.464Z,24.10
2019-04-30T21:11:58.778Z,24.37
2019-04-30T21:14:40.594Z,24.13
2019-04-30T21:17:10.468Z,22.77
2019-04-30T21:20:00.882Z,22.77
2019-04-30T21:22:49.442Z,25.60
2019-04-30T21:25:39.010Z,23.90
2019-04-30T21:28:29.535Z,24.93
2019-04-30T21:31:36.492Z,26.20
2019-04-30T21:37:28.929Z,24.07
2019-04-30T21:40:17.241Z,24.27
2019-04-30T21:43:05.617Z,24.40
2019-04-30T21:45:54.030Z,22.27
2019-04-30T21:48:42.434Z,23.57
2019-04-30T21:51:30.809Z,25.30
2019-04-30T21:54:19.224Z,25.30
2019-04-30T21:57:07.942Z,23.70
2019-04-30T21:59:56.262Z,20.73
2019-04-30T22:02:44.688Z,23.37
2019-04-30T22:05:33.106Z,21.20
2019-04-30T22:08:21.514Z,21.47
2019-04-30T22:11:09.914Z,23.77
2019-04-30T22:13:51.341Z,20.77
2019-04-30T22:16:32.002Z,21.90
2019-04-30T22:19:13.484Z,20.20
2019-04-30T22:21:42.804Z,23.57
2019-04-30T22:24:31.387Z,20.17
2019-04-30T22:27:19.855Z,21.00
2019-04-30T22:30:08.349Z,22.00
2019-04-30T22:32:59.379Z,20.67
2019-04-30T22:36:05.891Z,20.27
2019-04-30T22:39:13.270Z,21.27
2019-04-30T22:48:37.129Z,23.23
2019-04-30T22:51:25.535Z,22.97
2019-04-30T22:54:13.882Z,19.73
2019-04-30T22:57:02.266Z,21.90
2019-04-30T22:59:50.676Z,22.50
2019-04-30T23:02:58.008Z,22.60
2019-04-30T23:08:41.670Z,23.53
2019-04-30T23:11:30.098Z,23.03
2019-04-30T23:14:10.957Z,21.63
2019-04-30T23:16:51.934Z,20.50
2019-04-30T23:19:33.293Z,23.40
2019-04-30T23:22:14.188Z,22.23
2019-04-30T23:24:55.109Z,22.70
2019-04-30T23:27:36.555Z,24.10
2019-04-30T23:30:17.250Z,22.23
2019-04-30T23:32:58.441Z,22.07
2019-04-30T23:35:39.559Z,22.40
2019-04-30T23:38:20.716Z,22.53
2019-04-30T23:41:02.160Z,22.40
2019-04-30T23:43:43.059Z,25.70
2019-04-30T23:46:24.112Z,23.63
2019-04-30T23:49:05.592Z,24.73
2019-04-30T23:51:46.346Z,22.23
2019-04-30T23:54:27.717Z,25.10
2019-04-30T23:57:08.749Z,23.37
2019-04-30T23:59:49.673Z,22.67
